Time;durP1;ratioP1;P1;durP2;ratioP2;P2;SDS_P1;SDS_P2;PMS_P1;PMS_P2;Temp;Humidity;BMP_temperature;BMP_pressure;BME280_temperature;BME280_humidity;BME280_pressure;Samples;Min_cycle;Max_cycle;Signal;HPM_P1;HPM_P2
2023/05/17 00:01:22;;;;;;;12.65;4.57;;;;;;;;;;5065350;28;20156;-76
2023/05/17 00:03:47;;;;;;;12.50;4.30;;;;;;;;;;5062471;28;20071;-76
2023/05/17 00:06:12;;;;;;;11.40;4.55;;;;;;;;;;5054428;28;20098;-76
2023/05/17 00:08:38;;;;;;;10.27;4.65;;;;;;;;;;5058414;28;20078;-75
2023/05/17 00:11:03;;;;;;;10.55;4.47;;;;;;;;;;5060307;28;20762;-75
2023/05/17 00:13:28;;;;;;;11.13;4.95;;;;;;;;;;5062081;28;20020;-76
2023/05/17 00:15:53;;;;;;;8.93;3.53;;;;;;;;;;5060755;28;20020;-76
2023/05/17 00:18:19;;;;;;;15.23;5.20;;;;;;;;;;5061359;28;20870;-77
2023/05/17 00:20:44;;;;;;;9.13;4.47;;;;;;;;;;5052027;28;20186;-76
2023/05/17 00:23:09;;;;;;;9.70;4.35;;;;;;;;;;5057729;28;20153;-76
2023/05/17 00:25:34;;;;;;;9.38;5.18;;;;;;;;;;5058289;28;20399;-76
2023/05/17 00:28:00;;;;;;;9.35;4.30;;;;;;;;;;5063859;28;20036;-75
2023/05/17 00:30:25;;;;;;;11.88;4.55;;;;;;;;;;5044092;28;20545;-75
2023/05/17 00:32:50;;;;;;;12.52;5.32;;;;;;;;;;5062311;28;20035;-75
2023/05/17 00:35:16;;;;;;;10.40;4.22;;;;;;;;;;5061067;28;20043;-75
2023/05/17 00:37:46;;;;;;;10.00;4.68;;;;;;;;;;5061716;28;20028;-75
2023/05/17 00:40:12;;;;;;;14.02;4.50;;;;;;;;;;5061695;28;20108;-75
2023/05/17 00:42:37;;;;;;;16.77;4.95;;;;;;;;;;5055903;28;21000;-76
2023/05/17 00:45:02;;;;;;;18.85;5.13;;;;;;;;;;5054972;28;20037;-76
2023/05/17 00:47:28;;;;;;;11.95;4.80;;;;;;;;;;5061630;28;20886;-75
2023/05/17 00:49:53;;;;;;;12.25;4.70;;;;;;;;;;5062513;28;20067;-75
2023/05/17 00:52:18;;;;;;;11.95;5.03;;;;;;;;;;5059705;28;20074;-75
2023/05/17 00:54:44;;;;;;;12.98;5.45;;;;;;;;;;5064355;28;20130;-76
2023/05/17 00:57:09;;;;;;;11.50;5.47;;;;;;;;;;5063416;28;20496;-75
2023/05/17 00:59:36;;;;;;;11.35;4.45;;;;;;;;;;5066661;28;20020;-75
2023/05/17 01:02:02;;;;;;;12.38;5.38;;;;;;;;;;5066006;28;20042;-75
2023/05/17 01:04:28;;;;;;;12.70;5.78;;;;;;;;;;5064857;28;20032;-75
2023/05/17 01:06:53;;;;;;;13.45;5.93;;;;;;;;;;5061776;28;20385;-74
2023/05/17 01:09:19;;;;;;;11.40;5.40;;;;;;;;;;5060677;28;20185;-75
2023/05/17 01:11:47;;;;;;;16.02;5.55;;;;;;;;;;5057857;28;20039;-75
2023/05/17 01:14:18;;;;;;;13.75;5.10;;;;;;;;;;5062011;28;20028;-75
2023/05/17 01:16:48;;;;;;;13.27;5.72;;;;;;;;;;5047622;28;20085;-75
2023/05/17 01:19:42;;;;;;;15.13;5.90;;;;;;;;;;5062736;28;20107;-76
2023/05/17 01:22:24;;;;;;;11.88;5.22;;;;;;;;;;5034175;28;20084;-77
2023/05/17 01:24:52;;;;;;;10.63;5.05;;;;;;;;;;5059477;28;20461;-76
2023/05/17 01:27:17;;;;;;;10.63;5.25;;;;;;;;;;5064726;28;20165;-77
2023/05/17 01:29:43;;;;;;;13.93;5.78;;;;;;;;;;5064425;28;20046;-78
2023/05/17 01:32:09;;;;;;;12.32;5.53;;;;;;;;;;5063339;28;20016;-77
2023/05/17 01:34:35;;;;;;;13.82;4.95;;;;;;;;;;5062410;28;20059;-76
2023/05/17 01:37:00;;;;;;;16.27;6.40;;;;;;;;;;5063146;28;20752;-77
2023/05/17 01:39:25;;;;;;;12.40;5.53;;;;;;;;;;5044621;28;20021;-77
2023/05/17 01:41:58;;;;;;;20.77;6.15;;;;;;;;;;5058043;28;20715;-77
2023/05/17 01:44:36;;;;;;;15.82;5.53;;;;;;;;;;5055574;28;20032;-78
2023/05/17 01:47:08;;;;;;;16.33;5.80;;;;;;;;;;5061189;28;20036;-76
2023/05/17 01:49:38;;;;;;;22.92;6.68;;;;;;;;;;5062584;28;20036;-76
2023/05/17 01:52:03;;;;;;;14.32;6.43;;;;;;;;;;5053294;28;20151;-76
2023/05/17 01:54:35;;;;;;;13.93;6.32;;;;;;;;;;5062086;28;20075;-75
2023/05/17 01:57:03;;;;;;;19.77;5.72;;;;;;;;;;5061929;28;20028;-76
2023/05/17 01:59:30;;;;;;;19.88;7.00;;;;;;;;;;5064460;28;20024;-76
2023/05/17 02:01:57;;;;;;;16.00;5.65;;;;;;;;;;5058975;28;20047;-76
2023/05/17 02:04:22;;;;;;;15.38;6.28;;;;;;;;;;5062767;28;20504;-75
2023/05/17 02:06:47;;;;;;;13.63;6.03;;;;;;;;;;5061175;28;20093;-76
2023/05/17 02:09:13;;;;;;;10.40;5.45;;;;;;;;;;5057310;28;20481;-75
2023/05/17 02:11:38;;;;;;;16.73;5.53;;;;;;;;;;5057637;28;20062;-76
2023/05/17 02:14:03;;;;;;;10.57;5.15;;;;;;;;;;5062917;28;20040;-76
2023/05/17 02:16:29;;;;;;;15.23;6.10;;;;;;;;;;5058847;28;20104;-76
2023/05/17 02:18:54;;;;;;;12.73;5.38;;;;;;;;;;5059175;28;20023;-76
2023/05/17 02:21:20;;;;;;;15.95;6.03;;;;;;;;;;5060165;28;20028;-75
2023/05/17 02:23:45;;;;;;;12.48;5.50;;;;;;;;;;5060877;28;20761;-75
2023/05/17 02:26:10;;;;;;;13.02;6.18;;;;;;;;;;5060182;28;20028;-75
2023/05/17 02:28:35;;;;;;;17.17;5.78;;;;;;;;;;5061205;28;20517;-76
2023/05/17 02:31:01;;;;;;;13.40;6.30;;;;;;;;;;5060657;28;20123;-75
2023/05/17 02:33:26;;;;;;;15.00;6.18;;;;;;;;;;5058680;28;20027;-75
2023/05/17 02:35:51;;;;;;;11.35;5.60;;;;;;;;;;5030580;28;20888;-75
2023/05/17 02:38:17;;;;;;;9.95;5.38;;;;;;;;;;5045178;28;20026;-76
2023/05/17 02:40:42;;;;;;;12.68;5.57;;;;;;;;;;5058255;28;20887;-75
2023/05/17 02:43:07;;;;;;;11.20;5.05;;;;;;;;;;5058009;28;20127;-75
2023/05/17 02:45:32;;;;;;;12.50;5.90;;;;;;;;;;5058996;28;20555;-75
2023/05/17 02:47:58;;;;;;;15.43;5.85;;;;;;;;;;5060151;28;20039;-75
2023/05/17 02:50:23;;;;;;;9.73;6.07;;;;;;;;;;5061104;28;20126;-77
2023/05/17 02:52:48;;;;;;;8.98;5.85;;;;;;;;;;5058087;28;20032;-77
2023/05/17 02:55:13;;;;;;;14.00;5.88;;;;;;;;;;5056895;28;20031;-76
2023/05/17 02:57:39;;;;;;;12.50;6.00;;;;;;;;;;5058591;28;20138;-77
2023/05/17 03:00:05;;;;;;;18.48;5.88;;;;;;;;;;5062843;28;20031;-77
2023/05/17 03:02:30;;;;;;;11.02;5.75;;;;;;;;;;5061417;28;20073;-76
2023/05/17 03:04:56;;;;;;;12.05;5.68;;;;;;;;;;5059334;28;20029;-76
2023/05/17 03:07:21;;;;;;;14.38;5.75;;;;;;;;;;5057723;28;20540;-76
2023/05/17 03:09:46;;;;;;;13.93;7.18;;;;;;;;;;5052797;28;20061;-76
2023/05/17 03:12:11;;;;;;;13.38;5.95;;;;;;;;;;5056728;28;20889;-76
2023/05/17 03:14:37;;;;;;;16.33;6.97;;;;;;;;;;5058730;28;20911;-76
2023/05/17 03:17:02;;;;;;;13.00;5.38;;;;;;;;;;5057029;28;21063;-77
2023/05/17 03:19:27;;;;;;;13.40;6.40;;;;;;;;;;5060383;28;20024;-76
2023/05/17 03:21:53;;;;;;;14.35;7.10;;;;;;;;;;5044269;28;20115;-77
2023/05/17 03:24:18;;;;;;;19.40;6.93;;;;;;;;;;5059083;28;20850;-77
2023/05/17 03:26:43;;;;;;;15.75;6.57;;;;;;;;;;5058716;28;20025;-77
2023/05/17 03:29:08;;;;;;;15.45;6.57;;;;;;;;;;5059342;28;20047;-76
2023/05/17 03:31:34;;;;;;;17.75;6.80;;;;;;;;;;5058804;28;20024;-77
2023/05/17 03:33:59;;;;;;;13.88;7.50;;;;;;;;;;5037337;28;20079;-75
2023/05/17 03:36:24;;;;;;;18.48;8.32;;;;;;;;;;5057262;28;20020;-75
2023/05/17 03:38:50;;;;;;;11.60;7.38;;;;;;;;;;5064926;28;20032;-75
2023/05/17 03:41:15;;;;;;;16.10;8.20;;;;;;;;;;5064932;28;20816;-75
2023/05/17 03:43:40;;;;;;;23.20;8.70;;;;;;;;;;5058951;28;20142;-75
2023/05/17 03:46:05;;;;;;;16.52;8.57;;;;;;;;;;5059889;28;20038;-75
2023/05/17 03:48:31;;;;;;;15.43;8.60;;;;;;;;;;5036420;28;20500;-75
2023/05/17 03:50:56;;;;;;;17.50;8.75;;;;;;;;;;5051467;28;20032;-75
2023/05/17 03:53:22;;;;;;;18.48;8.38;;;;;;;;;;5032629;28;20034;-75
2023/05/17 03:55:47;;;;;;;21.67;8.75;;;;;;;;;;5056542;28;20019;-76
2023/05/17 03:58:12;;;;;;;14.05;8.38;;;;;;;;;;5056805;28;20028;-77
2023/05/17 04:00:37;;;;;;;18.13;8.50;;;;;;;;;;5042900;28;20077;-76
2023/05/17 04:03:03;;;;;;;18.67;8.43;;;;;;;;;;5057347;28;20031;-76
2023/05/17 04:05:28;;;;;;;17.52;8.93;;;;;;;;;;5035723;28;20920;-76
2023/05/17 04:07:53;;;;;;;19.70;9.18;;;;;;;;;;5049019;28;20084;-76
2023/05/17 04:10:19;;;;;;;12.38;7.65;;;;;;;;;;5048763;28;20020;-75
2023/05/17 04:12:44;;;;;;;25.20;10.88;;;;;;;;;;5048031;28;20035;-75
2023/05/17 04:15:10;;;;;;;19.85;10.88;;;;;;;;;;5027505;28;20035;-75
2023/05/17 04:17:35;;;;;;;18.50;11.82;;;;;;;;;;5032903;28;20091;-75
2023/05/17 04:20:01;;;;;;;24.77;11.40;;;;;;;;;;5044167;28;20020;-76
2023/05/17 04:22:26;;;;;;;29.15;12.88;;;;;;;;;;5047501;28;20551;-74
2023/05/17 04:24:51;;;;;;;31.42;13.02;;;;;;;;;;5048567;28;20333;-74
2023/05/17 04:27:17;;;;;;;22.92;12.23;;;;;;;;;;5043931;28;20009;-74
2023/05/17 04:29:42;;;;;;;22.90;11.45;;;;;;;;;;5044219;28;20056;-75
2023/05/17 04:32:07;;;;;;;25.63;13.27;;;;;;;;;;5048125;28;20743;-74
2023/05/17 04:34:33;;;;;;;23.88;13.57;;;;;;;;;;5048253;28;20063;-73
2023/05/17 04:36:58;;;;;;;23.90;12.35;;;;;;;;;;5049284;28;20024;-73
2023/05/17 04:39:24;;;;;;;21.98;12.70;;;;;;;;;;5047666;28;20127;-74
2023/05/17 04:41:49;;;;;;;22.92;13.15;;;;;;;;;;5047661;28;20087;-75
2023/05/17 04:44:14;;;;;;;27.45;14.05;;;;;;;;;;5046237;28;20016;-75
2023/05/17 04:46:40;;;;;;;24.67;12.90;;;;;;;;;;5037891;28;20119;-74
2023/05/17 04:49:06;;;;;;;22.58;13.95;;;;;;;;;;5039559;28;20027;-75
2023/05/17 04:51:31;;;;;;;31.48;13.32;;;;;;;;;;5049485;28;20119;-75
2023/05/17 04:53:59;;;;;;;26.15;12.80;;;;;;;;;;5048175;28;21042;-75
2023/05/17 04:56:25;;;;;;;28.17;12.70;;;;;;;;;;5046437;28;20046;-75
2023/05/17 04:58:50;;;;;;;24.73;12.32;;;;;;;;;;5028252;28;20024;-75
2023/05/17 05:01:16;;;;;;;18.60;12.70;;;;;;;;;;5052750;28;20090;-75
2023/05/17 05:03:41;;;;;;;26.42;12.20;;;;;;;;;;5054571;28;20797;-75
2023/05/17 05:06:06;;;;;;;25.05;12.43;;;;;;;;;;5050625;28;20024;-73
2023/05/17 05:08:32;;;;;;;23.75;12.45;;;;;;;;;;5052409;28;20032;-73
2023/05/17 05:10:57;;;;;;;22.77;12.50;;;;;;;;;;5047072;28;20035;-74
2023/05/17 05:13:23;;;;;;;24.27;12.02;;;;;;;;;;5052524;28;20032;-74
2023/05/17 05:15:48;;;;;;;29.33;12.68;;;;;;;;;;5053901;28;20028;-75
2023/05/17 05:18:13;;;;;;;32.28;12.63;;;;;;;;;;5043886;28;20905;-74
2023/05/17 05:20:38;;;;;;;22.67;12.18;;;;;;;;;;5036507;28;20028;-76
2023/05/17 05:23:04;;;;;;;19.35;11.00;;;;;;;;;;5051199;28;20890;-75
2023/05/17 05:25:30;;;;;;;30.17;12.95;;;;;;;;;;5051381;28;20942;-74
2023/05/17 05:27:55;;;;;;;22.20;12.85;;;;;;;;;;5054120;28;20024;-74
2023/05/17 05:30:21;;;;;;;20.92;12.38;;;;;;;;;;5032184;28;20025;-74
2023/05/17 05:32:50;;;;;;;22.98;12.25;;;;;;;;;;5032289;28;20032;-76
2023/05/17 05:35:15;;;;;;;30.88;13.23;;;;;;;;;;5049408;28;20135;-75
2023/05/17 05:37:41;;;;;;;25.52;12.20;;;;;;;;;;5038097;28;20025;-75
2023/05/17 05:40:07;;;;;;;23.98;12.00;;;;;;;;;;5045789;28;20083;-74
2023/05/17 05:42:32;;;;;;;26.05;12.38;;;;;;;;;;5047347;28;20216;-73
2023/05/17 05:44:58;;;;;;;25.85;13.18;;;;;;;;;;5042393;28;20911;-73
2023/05/17 05:47:23;;;;;;;21.23;12.20;;;;;;;;;;5051515;28;20072;-74
2023/05/17 05:49:48;;;;;;;19.88;11.93;;;;;;;;;;5043685;28;20047;-74
2023/05/17 05:52:13;;;;;;;19.92;12.07;;;;;;;;;;5048664;28;20304;-75
2023/05/17 05:54:39;;;;;;;24.80;12.75;;;;;;;;;;5035996;28;20119;-72
2023/05/17 05:57:04;;;;;;;22.38;12.15;;;;;;;;;;5044516;28;20051;-73
2023/05/17 05:59:29;;;;;;;25.60;12.20;;;;;;;;;;5047814;28;20056;-75
2023/05/17 06:01:55;;;;;;;33.45;14.68;;;;;;;;;;5051656;28;20577;-75
2023/05/17 06:04:20;;;;;;;28.20;13.30;;;;;;;;;;5055658;28;20027;-75
2023/05/17 06:06:45;;;;;;;23.20;13.77;;;;;;;;;;5051979;28;20024;-75
2023/05/17 06:09:13;;;;;;;19.33;12.75;;;;;;;;;;5043217;28;20031;-74
2023/05/17 06:11:38;;;;;;;20.77;11.57;;;;;;;;;;5031406;28;20031;-76
2023/05/17 06:14:04;;;;;;;24.80;11.65;;;;;;;;;;5044432;28;20031;-73
2023/05/17 06:16:29;;;;;;;21.10;11.27;;;;;;;;;;5043743;28;20918;-75
2023/05/17 06:18:55;;;;;;;24.25;11.20;;;;;;;;;;5042361;28;20055;-75
2023/05/17 06:21:20;;;;;;;24.50;10.75;;;;;;;;;;5040348;28;20039;-74
2023/05/17 06:23:45;;;;;;;18.42;10.20;;;;;;;;;;5043632;28;20067;-68
2023/05/17 06:26:10;;;;;;;17.88;10.02;;;;;;;;;;5035322;28;20031;-75
2023/05/17 06:28:36;;;;;;;19.17;11.48;;;;;;;;;;5044473;28;20077;-73
2023/05/17 06:31:02;;;;;;;19.63;11.50;;;;;;;;;;5032965;28;20891;-74
2023/05/17 06:33:27;;;;;;;20.13;10.32;;;;;;;;;;5045329;28;20012;-69
2023/05/17 06:35:53;;;;;;;17.13;10.93;;;;;;;;;;5044764;28;20016;-71
2023/05/17 06:38:19;;;;;;;24.50;11.50;;;;;;;;;;5044196;28;20536;-66
2023/05/17 06:40:44;;;;;;;19.67;10.07;;;;;;;;;;5044646;28;20117;-71
2023/05/17 06:43:09;;;;;;;22.42;12.00;;;;;;;;;;5044657;28;20031;-73
2023/05/17 06:45:34;;;;;;;23.27;9.85;;;;;;;;;;5044426;28;20027;-72
2023/05/17 06:48:00;;;;;;;25.02;10.43;;;;;;;;;;5043022;28;20028;-72
2023/05/17 06:50:27;;;;;;;19.10;9.25;;;;;;;;;;5044798;28;20061;-73
2023/05/17 06:52:52;;;;;;;20.30;9.32;;;;;;;;;;5045712;28;20110;-73
2023/05/17 06:55:17;;;;;;;24.02;9.13;;;;;;;;;;5043281;28;20992;-75
2023/05/17 06:57:43;;;;;;;16.20;8.80;;;;;;;;;;5045318;28;20127;-73
2023/05/17 07:00:09;;;;;;;17.92;8.10;;;;;;;;;;5043437;28;20028;-69
2023/05/17 07:02:35;;;;;;;30.85;9.68;;;;;;;;;;5035694;28;20032;-70
2023/05/17 07:05:01;;;;;;;18.40;8.73;;;;;;;;;;5044117;28;20862;-68
2023/05/17 07:07:26;;;;;;;21.83;8.23;;;;;;;;;;5043899;28;20124;-67
2023/05/17 07:09:51;;;;;;;19.05;8.25;;;;;;;;;;5044203;28;20907;-75
2023/05/17 07:12:16;;;;;;;23.20;8.77;;;;;;;;;;5048769;28;20481;-74
2023/05/17 07:14:41;;;;;;;14.73;6.45;;;;;;;;;;5047737;28;20024;-72
2023/05/17 07:17:07;;;;;;;18.08;7.50;;;;;;;;;;5032785;28;20127;-75
2023/05/17 07:19:32;;;;;;;16.77;6.85;;;;;;;;;;5035174;28;20777;-75
2023/05/17 07:21:57;;;;;;;26.30;6.53;;;;;;;;;;5033218;28;20060;-72
2023/05/17 07:24:23;;;;;;;15.20;6.95;;;;;;;;;;5048673;28;20893;-75
2023/05/17 07:26:48;;;;;;;23.02;7.85;;;;;;;;;;5046501;28;20028;-75
2023/05/17 07:29:13;;;;;;;12.50;6.00;;;;;;;;;;5043251;28;20024;-74
2023/05/17 07:31:38;;;;;;;15.68;6.63;;;;;;;;;;5047042;28;20023;-68
2023/05/17 07:34:04;;;;;;;15.52;6.03;;;;;;;;;;5049389;28;20059;-71
2023/05/17 07:36:29;;;;;;;21.45;5.60;;;;;;;;;;5022421;28;20040;-75
2023/05/17 07:38:58;;;;;;;12.77;5.82;;;;;;;;;;5040648;28;20826;-75
2023/05/17 07:41:23;;;;;;;13.57;5.93;;;;;;;;;;5047365;28;20097;-76
2023/05/17 07:43:49;;;;;;;14.93;5.13;;;;;;;;;;5046419;28;20064;-74
2023/05/17 07:46:14;;;;;;;7.47;3.90;;;;;;;;;;5046751;28;20900;-72
2023/05/17 07:48:39;;;;;;;11.80;4.97;;;;;;;;;;5047961;28;20897;-73
2023/05/17 07:51:04;;;;;;;9.02;4.93;;;;;;;;;;5045133;28;20113;-73
2023/05/17 07:53:30;;;;;;;12.20;5.18;;;;;;;;;;5040210;28;20059;-74
2023/05/17 07:55:55;;;;;;;10.98;5.45;;;;;;;;;;5047852;28;20041;-67
2023/05/17 07:58:20;;;;;;;16.27;5.25;;;;;;;;;;5043890;28;20035;-74
2023/05/17 08:00:46;;;;;;;14.00;4.43;;;;;;;;;;5041336;28;20028;-73
2023/05/17 08:03:11;;;;;;;14.35;4.43;;;;;;;;;;5047573;28;20059;-73
2023/05/17 08:05:36;;;;;;;15.52;3.90;;;;;;;;;;5046334;28;20854;-74
2023/05/17 08:08:02;;;;;;;9.77;4.82;;;;;;;;;;5044272;28;20900;-74
2023/05/17 08:10:27;;;;;;;9.23;4.13;;;;;;;;;;5047454;28;20467;-70
2023/05/17 08:12:53;;;;;;;7.70;3.88;;;;;;;;;;5048348;28;20028;-72
2023/05/17 08:15:18;;;;;;;17.70;4.10;;;;;;;;;;5045822;28;20067;-75
2023/05/17 08:17:44;;;;;;;10.13;3.90;;;;;;;;;;5048087;28;20951;-74
2023/05/17 08:20:09;;;;;;;17.05;3.83;;;;;;;;;;5039737;28;20067;-70
2023/05/17 08:22:35;;;;;;;8.48;3.80;;;;;;;;;;5046766;28;20139;-75
2023/05/17 08:25:01;;;;;;;9.20;3.60;;;;;;;;;;5047853;28;20034;-76
2023/05/17 08:27:26;;;;;;;14.40;3.83;;;;;;;;;;5071855;28;20093;-71
2023/05/17 08:29:53;;;;;;;17.00;3.80;;;;;;;;;;5067411;28;20036;-74
2023/05/17 08:32:18;;;;;;;8.32;3.45;;;;;;;;;;5058700;28;20103;-74
2023/05/17 08:34:44;;;;;;;6.85;3.55;;;;;;;;;;5081798;28;20088;-73
2023/05/17 08:37:09;;;;;;;8.40;3.63;;;;;;;;;;5093066;28;20020;-73
2023/05/17 08:39:35;;;;;;;7.32;3.22;;;;;;;;;;5080471;28;20017;-70
2023/05/17 08:42:01;;;;;;;9.10;3.47;;;;;;;;;;5085796;28;20035;-74
2023/05/17 08:44:29;;;;;;;11.52;4.18;;;;;;;;;;5091143;28;20023;-73
2023/05/17 08:46:55;;;;;;;15.07;3.63;;;;;;;;;;5092902;28;20074;-76
2023/05/17 08:49:24;;;;;;;7.80;3.75;;;;;;;;;;5074574;28;20031;-73
2023/05/17 08:51:51;;;;;;;5.13;2.33;;;;;;;;;;5092823;28;20031;-72
2023/05/17 08:54:17;;;;;;;14.88;2.90;;;;;;;;;;5093144;28;20474;-74
2023/05/17 08:56:42;;;;;;;11.48;3.53;;;;;;;;;;5093129;28;20028;-77
2023/05/17 08:59:09;;;;;;;12.18;3.38;;;;;;;;;;5092995;28;20386;-73
2023/05/17 09:01:35;;;;;;;7.60;3.63;;;;;;;;;;5091975;28;20449;-74
2023/05/17 09:04:00;;;;;;;17.15;3.95;;;;;;;;;;5092418;28;20054;-73
2023/05/17 09:06:25;;;;;;;13.20;3.80;;;;;;;;;;5091438;28;20044;-77
2023/05/17 09:08:51;;;;;;;9.73;2.85;;;;;;;;;;5092423;28;20070;-72
2023/05/17 09:11:26;;;;;;;6.15;2.95;;;;;;;;;;5092095;28;20367;-75
2023/05/17 09:13:51;;;;;;;9.43;2.83;;;;;;;;;;5090198;28;20071;-74
2023/05/17 09:16:20;;;;;;;11.85;3.83;;;;;;;;;;5089958;28;20024;-73
2023/05/17 09:18:52;;;;;;;11.43;3.42;;;;;;;;;;5091135;28;20012;-73
2023/05/17 09:21:17;;;;;;;11.15;4.28;;;;;;;;;;5091941;28;20036;-76
2023/05/17 09:23:45;;;;;;;6.57;3.35;;;;;;;;;;5075289;28;20024;-73
2023/05/17 09:26:12;;;;;;;14.10;3.55;;;;;;;;;;5088837;28;20020;-76
2023/05/17 09:28:38;;;;;;;9.95;3.03;;;;;;;;;;5092823;28;20117;-72
2023/05/17 09:31:04;;;;;;;13.68;3.83;;;;;;;;;;5091032;28;20441;-72
2023/05/17 09:33:30;;;;;;;13.07;3.17;;;;;;;;;;5092211;28;20051;-73
2023/05/17 09:35:55;;;;;;;6.30;2.75;;;;;;;;;;5091854;28;20510;-78
2023/05/17 09:38:24;;;;;;;7.63;3.67;;;;;;;;;;5089615;28;20020;-71
2023/05/17 09:40:49;;;;;;;9.48;3.10;;;;;;;;;;5088139;28;20032;-68
2023/05/17 09:43:15;;;;;;;6.90;2.67;;;;;;;;;;5082319;28;20042;-72
2023/05/17 09:45:41;;;;;;;10.57;3.90;;;;;;;;;;5092378;28;20077;-74
2023/05/17 09:48:32;;;;;;;8.77;3.17;;;;;;;;;;5091675;28;20016;-63
2023/05/17 09:50:59;;;;;;;12.15;4.38;;;;;;;;;;5088311;28;20441;-70
2023/05/17 09:53:37;;;;;;;7.38;3.13;;;;;;;;;;5135838;27;20656;-78
2023/05/17 09:56:04;;;;;;;10.52;3.97;;;;;;;;;;5116445;28;20031;-77
2023/05/17 09:58:30;;;;;;;11.23;3.53;;;;;;;;;;5115984;28;20019;-70
2023/05/17 10:01:00;;;;;;;10.00;3.30;;;;;;;;;;5114133;28;20020;-71
2023/05/17 10:03:27;;;;;;;7.95;3.10;;;;;;;;;;5112649;28;20474;-71
2023/05/17 10:05:52;;;;;;;7.82;3.20;;;;;;;;;;5105602;28;20048;-69
2023/05/17 10:08:20;;;;;;;6.35;2.97;;;;;;;;;;5111668;27;20491;-69
2023/05/17 10:10:47;;;;;;;10.05;3.08;;;;;;;;;;5108419;28;20020;-68
2023/05/17 10:13:13;;;;;;;6.85;3.17;;;;;;;;;;5119366;28;20054;-69
2023/05/17 10:15:39;;;;;;;6.78;3.25;;;;;;;;;;5115053;28;20736;-71
2023/05/17 10:18:06;;;;;;;11.65;4.00;;;;;;;;;;5111532;28;20024;-70
2023/05/17 10:20:32;;;;;;;21.15;3.30;;;;;;;;;;5128072;28;20027;-75
2023/05/17 10:22:58;;;;;;;10.80;4.30;;;;;;;;;;5124112;28;20080;-70
2023/05/17 10:25:24;;;;;;;11.15;4.18;;;;;;;;;;5108365;28;20028;-68
2023/05/17 10:27:49;;;;;;;6.72;3.03;;;;;;;;;;5112053;28;20077;-77
2023/05/17 10:30:17;;;;;;;8.93;3.10;;;;;;;;;;5113160;28;20011;-70
2023/05/17 10:32:43;;;;;;;9.98;3.63;;;;;;;;;;5110430;28;20440;-73
2023/05/17 10:35:09;;;;;;;15.68;4.13;;;;;;;;;;5114806;28;20019;-67
2023/05/17 10:37:34;;;;;;;8.57;3.58;;;;;;;;;;5119713;27;20024;-76
2023/05/17 10:39:59;;;;;;;14.38;4.10;;;;;;;;;;5112099;28;20019;-71
2023/05/17 10:42:25;;;;;;;7.88;3.50;;;;;;;;;;5109736;28;20027;-72
2023/05/17 10:44:52;;;;;;;8.20;3.28;;;;;;;;;;5094052;28;20051;-81
2023/05/17 10:47:17;;;;;;;8.65;3.40;;;;;;;;;;5116277;28;20051;-72
2023/05/17 10:49:46;;;;;;;8.13;3.10;;;;;;;;;;5118538;28;20055;-69
2023/05/17 10:52:15;;;;;;;12.65;5.22;;;;;;;;;;5117302;27;20067;-70
2023/05/17 10:54:42;;;;;;;12.15;3.78;;;;;;;;;;5115126;28;20106;-66
2023/05/17 10:57:08;;;;;;;9.60;3.70;;;;;;;;;;5108783;28;20077;-67
2023/05/17 10:59:34;;;;;;;11.90;4.15;;;;;;;;;;5112167;28;20028;-70
2023/05/17 11:02:07;;;;;;;10.63;3.70;;;;;;;;;;5120701;28;20019;-68
2023/05/17 11:04:33;;;;;;;12.90;4.78;;;;;;;;;;5095908;28;20016;-72
2023/05/17 11:07:24;;;;;;;16.77;4.80;;;;;;;;;;5093817;28;20467;-70
2023/05/17 11:09:59;;;;;;;10.48;4.40;;;;;;;;;;5095083;28;20052;-73
2023/05/17 11:12:35;;;;;;;13.35;4.32;;;;;;;;;;5098416;28;20032;-73
2023/05/17 11:15:03;;;;;;;12.00;5.03;;;;;;;;;;5097648;28;20023;-70
2023/05/17 11:17:45;;;;;;;11.20;4.32;;;;;;;;;;5101868;28;20024;-72
2023/05/17 11:20:13;;;;;;;8.73;4.32;;;;;;;;;;5099691;28;20106;-71
2023/05/17 11:22:47;;;;;;;15.13;4.07;;;;;;;;;;5099268;28;20035;-70
2023/05/17 11:25:13;;;;;;;12.82;4.20;;;;;;;;;;5106028;28;20052;-74
2023/05/17 11:27:43;;;;;;;9.98;4.18;;;;;;;;;;5103030;28;20479;-69
2023/05/17 11:30:14;;;;;;;10.07;3.75;;;;;;;;;;5106675;28;20021;-73
2023/05/17 11:32:45;;;;;;;10.30;4.10;;;;;;;;;;5104715;28;20063;-72
2023/05/17 11:35:10;;;;;;;17.30;4.25;;;;;;;;;;5108017;28;20107;-69
2023/05/17 11:37:36;;;;;;;8.55;3.80;;;;;;;;;;5094214;28;20132;-66
2023/05/17 11:40:06;;;;;;;7.53;3.97;;;;;;;;;;5093681;28;20016;-75
2023/05/17 11:42:32;;;;;;;9.27;4.30;;;;;;;;;;5093570;28;20270;-74
2023/05/17 11:45:00;;;;;;;17.20;4.15;;;;;;;;;;5093218;28;20086;-69
2023/05/17 11:47:25;;;;;;;10.35;4.55;;;;;;;;;;5100063;28;20042;-70
2023/05/17 11:49:52;;;;;;;8.52;3.95;;;;;;;;;;5093961;28;20024;-75
2023/05/17 11:52:17;;;;;;;7.97;4.10;;;;;;;;;;5093521;28;20024;-70
2023/05/17 11:54:43;;;;;;;8.45;4.10;;;;;;;;;;5098578;28;20031;-68
2023/05/17 11:57:10;;;;;;;7.13;4.00;;;;;;;;;;5106250;28;20027;-76
2023/05/17 11:59:38;;;;;;;7.80;4.13;;;;;;;;;;5108655;28;20092;-69
2023/05/17 12:02:04;;;;;;;7.00;3.88;;;;;;;;;;5105059;28;20058;-68
2023/05/17 12:04:33;;;;;;;10.23;4.78;;;;;;;;;;5111983;28;20051;-75
2023/05/17 12:07:00;;;;;;;8.65;4.13;;;;;;;;;;5109240;28;20024;-74
2023/05/17 12:09:25;;;;;;;14.85;4.30;;;;;;;;;;5098852;28;20493;-71
2023/05/17 12:11:50;;;;;;;12.00;4.13;;;;;;;;;;5103259;28;20082;-76
2023/05/17 12:14:16;;;;;;;8.68;4.25;;;;;;;;;;5101878;28;20055;-72
2023/05/17 12:16:43;;;;;;;8.23;4.55;;;;;;;;;;5073556;28;20480;-71
2023/05/17 12:19:21;;;;;;;8.48;4.53;;;;;;;;;;5092324;28;20062;-71
2023/05/17 12:21:46;;;;;;;6.15;4.15;;;;;;;;;;5099788;28;20074;-70
2023/05/17 12:24:12;;;;;;;10.50;4.75;;;;;;;;;;5095719;28;20051;-73
2023/05/17 12:26:44;;;;;;;8.98;4.70;;;;;;;;;;5099015;28;20026;-72
2023/05/17 12:29:10;;;;;;;7.22;3.85;;;;;;;;;;5082009;28;20055;-67
2023/05/17 12:31:39;;;;;;;7.47;3.92;;;;;;;;;;5069504;28;20019;-74
2023/05/17 12:34:05;;;;;;;8.57;3.55;;;;;;;;;;5073405;28;20026;-67
2023/05/17 12:36:32;;;;;;;8.25;4.03;;;;;;;;;;5077927;28;20048;-68
2023/05/17 12:38:58;;;;;;;8.05;3.75;;;;;;;;;;5098729;28;20713;-70
2023/05/17 12:41:25;;;;;;;10.43;3.80;;;;;;;;;;5089442;28;20065;-71
2023/05/17 12:43:50;;;;;;;11.52;3.55;;;;;;;;;;5099421;28;20398;-69
2023/05/17 12:46:20;;;;;;;9.63;3.60;;;;;;;;;;5098499;28;20066;-71
2023/05/17 12:48:45;;;;;;;6.25;3.28;;;;;;;;;;5096811;28;20028;-66
2023/05/17 12:51:13;;;;;;;10.02;4.15;;;;;;;;;;5101308;28;20087;-68
2023/05/17 12:53:42;;;;;;;7.68;3.60;;;;;;;;;;5093359;28;20024;-70
2023/05/17 12:56:08;;;;;;;10.18;3.38;;;;;;;;;;5072071;28;20063;-67
2023/05/17 12:58:33;;;;;;;5.28;3.08;;;;;;;;;;5093529;28;20058;-68
2023/05/17 13:01:02;;;;;;;7.75;3.30;;;;;;;;;;5096351;28;20031;-67
2023/05/17 13:03:27;;;;;;;5.93;3.38;;;;;;;;;;5096788;28;20076;-69
2023/05/17 13:06:03;;;;;;;9.00;3.47;;;;;;;;;;5102473;28;20039;-70
2023/05/17 13:08:29;;;;;;;6.40;3.17;;;;;;;;;;5106707;28;20023;-68
2023/05/17 13:11:04;;;;;;;9.27;3.60;;;;;;;;;;5077134;28;20028;-70
2023/05/17 13:13:31;;;;;;;9.20;3.40;;;;;;;;;;5100681;28;20032;-71
2023/05/17 13:15:57;;;;;;;7.38;3.70;;;;;;;;;;5088732;28;20694;-70
2023/05/17 13:18:23;;;;;;;14.13;3.92;;;;;;;;;;5089054;28;20021;-71
2023/05/17 13:20:50;;;;;;;6.38;3.22;;;;;;;;;;5087492;28;20390;-70
2023/05/17 13:23:15;;;;;;;12.60;3.53;;;;;;;;;;5107614;28;20110;-71
2023/05/17 13:25:40;;;;;;;9.25;2.88;;;;;;;;;;5101045;28;20103;-69
2023/05/17 13:28:06;;;;;;;6.50;3.50;;;;;;;;;;5107116;28;20051;-72
2023/05/17 13:30:31;;;;;;;6.55;3.17;;;;;;;;;;5103787;28;20752;-72
2023/05/17 13:32:56;;;;;;;9.30;3.10;;;;;;;;;;5097309;28;20036;-68
2023/05/17 13:35:21;;;;;;;8.27;3.20;;;;;;;;;;5079284;28;20085;-71
2023/05/17 13:37:47;;;;;;;9.68;2.88;;;;;;;;;;5069572;28;20023;-72
2023/05/17 13:40:12;;;;;;;5.80;3.13;;;;;;;;;;5089395;28;20019;-72
2023/05/17 13:42:38;;;;;;;10.27;3.58;;;;;;;;;;5091654;28;20036;-68
2023/05/17 13:45:03;;;;;;;9.57;3.28;;;;;;;;;;5084445;28;20023;-68
2023/05/17 13:47:30;;;;;;;8.73;3.25;;;;;;;;;;5093338;28;20397;-71
2023/05/17 13:49:55;;;;;;;8.85;2.88;;;;;;;;;;5097956;28;20031;-76
2023/05/17 13:52:21;;;;;;;7.65;2.88;;;;;;;;;;5098950;28;20031;-68
2023/05/17 13:54:47;;;;;;;8.30;3.25;;;;;;;;;;5102963;28;20030;-66
2023/05/17 13:57:12;;;;;;;9.18;3.08;;;;;;;;;;5089881;28;20020;-66
2023/05/17 13:59:38;;;;;;;13.50;3.25;;;;;;;;;;5104656;28;20028;-69
2023/05/17 14:02:03;;;;;;;8.65;3.10;;;;;;;;;;5094408;28;20024;-70
2023/05/17 14:04:28;;;;;;;6.80;3.58;;;;;;;;;;5084987;28;20031;-70
2023/05/17 14:06:54;;;;;;;9.02;3.00;;;;;;;;;;5088510;28;20115;-66
2023/05/17 14:09:19;;;;;;;6.95;2.90;;;;;;;;;;5090713;28;20020;-69
2023/05/17 14:11:44;;;;;;;13.77;3.28;;;;;;;;;;5088862;28;20036;-70
2023/05/17 14:14:09;;;;;;;6.65;3.00;;;;;;;;;;5101112;28;20016;-67
2023/05/17 14:16:36;;;;;;;5.82;2.90;;;;;;;;;;5109743;28;20026;-70
2023/05/17 14:19:01;;;;;;;6.07;2.78;;;;;;;;;;5093900;28;20036;-68
2023/05/17 14:21:26;;;;;;;9.25;2.95;;;;;;;;;;5098597;28;20390;-67
2023/05/17 14:23:52;;;;;;;6.27;2.93;;;;;;;;;;5081564;28;20458;-66
2023/05/17 14:26:17;;;;;;;14.80;3.27;;;;;;;;;;5098299;28;20293;-70